Time;durP1;ratioP1;P1;durP2;ratioP2;P2;SDS_P1;SDS_P2;PMS_P1;PMS_P2;Temp;Humidity;BMP_temperature;BMP_pressure;BME280_temperature;BME280_humidity;BME280_pressure;Samples;Min_cycle;Max_cycle;Signal;HPM_P1;HPM_P2
2021/06/16 00:00:21;;;;;;;8.70;2.50;;;;;;;14.22;61.92;101605.63;5095160;28;20023;-72
2021/06/16 00:02:46;;;;;;;9.27;2.60;;;;;;;14.21;62.10;101609.00;5121262;27;20020;-72
2021/06/16 00:05:15;;;;;;;8.27;2.53;;;;;;;14.17;62.23;101604.50;5095008;28;20023;-72
2021/06/16 00:07:42;;;;;;;4.85;2.17;;;;;;;14.11;62.42;101611.97;5095047;28;20491;-71
2021/06/16 00:10:09;;;;;;;6.47;2.20;;;;;;;14.03;62.46;101609.00;5113265;28;20032;-71
2021/06/16 00:12:35;;;;;;;7.38;2.25;;;;;;;14.02;62.70;101607.22;5078195;28;20503;-72
2021/06/16 00:15:03;;;;;;;8.55;2.58;;;;;;;13.92;62.96;101599.81;5095048;28;20038;-71
2021/06/16 00:17:29;;;;;;;4.57;2.00;;;;;;;13.83;63.21;101597.63;5078065;28;20115;-72
2021/06/16 00:19:54;;;;;;;6.32;2.40;;;;;;;13.83;63.22;101600.22;5113188;28;20069;-72
2021/06/16 00:22:20;;;;;;;7.70;2.80;;;;;;;13.79;63.00;101603.44;5112858;28;20044;-72
2021/06/16 00:24:45;;;;;;;7.20;2.85;;;;;;;13.73;63.30;101602.31;5094585;28;20027;-71
2021/06/16 00:27:11;;;;;;;6.38;2.20;;;;;;;13.75;63.17;101601.50;5094866;28;20035;-72
2021/06/16 00:29:36;;;;;;;5.97;2.40;;;;;;;13.73;63.44;101599.75;5094837;28;20036;-72
2021/06/16 00:32:02;;;;;;;4.90;2.30;;;;;;;13.64;63.54;101594.09;5094465;28;20038;-72
2021/06/16 00:34:27;;;;;;;5.78;2.53;;;;;;;13.48;64.14;101581.16;5113221;28;20020;-71
2021/06/16 00:36:53;;;;;;;10.65;2.85;;;;;;;13.48;64.12;101596.69;5094902;28;20015;-72
2021/06/16 00:39:18;;;;;;;8.38;2.63;;;;;;;13.47;64.11;101589.72;5095097;28;20035;-72
2021/06/16 00:41:45;;;;;;;9.50;2.33;;;;;;;13.46;64.03;101593.13;5094213;28;20023;-72
2021/06/16 00:44:10;;;;;;;5.20;2.47;;;;;;;13.42;63.96;101592.97;5095816;28;20028;-72
2021/06/16 00:46:36;;;;;;;7.38;2.58;;;;;;;13.34;64.23;101591.66;5094710;28;20024;-72
2021/06/16 00:49:03;;;;;;;9.00;2.53;;;;;;;13.29;64.56;101600.84;5112797;28;20520;-72
2021/06/16 00:51:29;;;;;;;7.75;2.65;;;;;;;13.29;64.62;101595.69;5094667;28;20020;-71
2021/06/16 00:53:54;;;;;;;7.82;2.60;;;;;;;13.21;64.56;101602.13;5095384;28;20506;-72
2021/06/16 00:56:20;;;;;;;8.32;2.33;;;;;;;13.20;64.28;101595.16;5116694;28;20482;-72
2021/06/16 00:58:46;;;;;;;4.45;2.35;;;;;;;13.14;64.36;101583.69;5081381;28;20147;-72
2021/06/16 01:01:24;;;;;;;7.25;2.60;;;;;;;13.14;64.35;101595.75;5081547;28;20027;-72
2021/06/16 01:04:02;;;;;;;3.92;2.40;;;;;;;13.08;64.69;101585.94;5098055;28;20427;-71
2021/06/16 01:06:43;;;;;;;6.22;2.90;;;;;;;13.07;64.22;101589.34;5116457;28;20031;-72
2021/06/16 01:09:16;;;;;;;5.57;2.40;;;;;;;13.00;64.72;101587.22;5116464;28;20023;-71
2021/06/16 01:11:57;;;;;;;7.88;2.50;;;;;;;12.99;64.74;101588.03;5116595;28;20077;-72
2021/06/16 01:14:35;;;;;;;5.88;2.30;;;;;;;12.90;65.02;101579.78;5116394;28;20031;-72
2021/06/16 01:17:03;;;;;;;7.40;2.58;;;;;;;12.97;64.78;101587.06;5098295;28;20024;-71
2021/06/16 01:19:50;;;;;;;4.25;2.40;;;;;;;12.93;64.91;101579.94;5081177;28;20287;-71
2021/06/16 01:22:25;;;;;;;7.18;2.35;;;;;;;12.83;64.98;101582.03;5115815;28;20044;-72
2021/06/16 01:24:52;;;;;;;5.35;2.35;;;;;;;12.73;65.04;101579.72;5097566;28;20126;-71
2021/06/16 01:27:20;;;;;;;10.18;3.17;;;;;;;12.75;65.17;101583.28;5097947;28;20384;-71
2021/06/16 01:29:46;;;;;;;11.98;3.60;;;;;;;12.66;65.52;101577.63;5115926;28;20404;-72
2021/06/16 01:32:12;;;;;;;6.20;2.65;;;;;;;12.57;65.53;101575.41;5097638;28;20476;-72
2021/06/16 01:34:38;;;;;;;8.38;3.20;;;;;;;12.66;65.45;101585.38;5097406;28;20019;-72
2021/06/16 01:37:04;;;;;;;12.93;3.28;;;;;;;12.68;64.96;101584.63;5115841;28;20028;-72
2021/06/16 01:39:33;;;;;;;6.90;2.60;;;;;;;12.62;65.39;101580.84;5115775;28;20500;-72
2021/06/16 01:42:03;;;;;;;10.00;3.67;;;;;;;12.60;64.99;101569.53;5097766;28;20028;-72
2021/06/16 01:44:30;;;;;;;5.82;2.70;;;;;;;12.54;65.24;101576.13;5097475;28;20015;-72
2021/06/16 01:46:56;;;;;;;6.78;2.72;;;;;;;12.51;65.30;101569.88;5080484;28;20031;-71
2021/06/16 01:49:25;;;;;;;6.10;2.90;;;;;;;12.46;65.05;101566.16;5097566;28;20030;-72
2021/06/16 01:51:51;;;;;;;5.55;2.60;;;;;;;12.40;65.41;101566.72;5097491;28;20031;-72
2021/06/16 01:54:17;;;;;;;7.78;3.75;;;;;;;12.49;65.03;101572.41;5097431;28;20031;-72
2021/06/16 01:56:44;;;;;;;6.72;2.63;;;;;;;12.45;65.27;101569.53;5096995;28;20385;-72
2021/06/16 01:59:11;;;;;;;4.95;2.55;;;;;;;12.40;65.18;101566.72;5097013;28;20054;-72
2021/06/16 02:01:36;;;;;;;9.38;2.97;;;;;;;12.35;65.44;101568.16;5118163;27;20398;-72
2021/06/16 02:04:02;;;;;;;5.60;2.80;;;;;;;12.13;66.42;101569.47;5080138;28;20039;-72
2021/06/16 02:06:30;;;;;;;6.15;2.67;;;;;;;12.21;66.07;101565.66;5097336;27;20435;-71
2021/06/16 02:08:56;;;;;;;4.32;2.42;;;;;;;12.31;65.64;101576.53;5101809;28;20020;-71
2021/06/16 02:11:22;;;;;;;11.68;3.08;;;;;;;12.21;65.70;101570.84;5096880;28;20027;-72
2021/06/16 02:13:54;;;;;;;4.88;2.35;;;;;;;12.15;65.71;101561.84;5097010;28;20031;-72
2021/06/16 02:16:46;;;;;;;7.05;2.65;;;;;;;12.19;65.62;101572.41;5096969;28;20020;-72
2021/06/16 02:19:16;;;;;;;6.82;2.50;;;;;;;12.16;65.39;101572.22;5107821;28;20069;-71
2021/06/16 02:21:42;;;;;;;;;;;;;;;11.73;66.74;101574.88;5114760;28;20077;-71
2021/06/16 02:24:09;;;;;;;5.65;2.58;;;;;;;11.75;66.75;101574.16;5096825;28;19907;-72
2021/06/16 02:26:36;;;;;;;4.55;2.40;;;;;;;11.81;66.50;101565.88;5096833;28;20027;-72
2021/06/16 02:29:06;;;;;;;5.25;2.70;;;;;;;11.88;66.10;101565.44;5075816;28;20055;-72
2021/06/16 02:31:33;;;;;;;6.10;2.75;;;;;;;12.03;65.81;101564.59;5094114;28;20516;-71
2021/06/16 02:33:59;;;;;;;4.43;2.80;;;;;;;12.05;65.56;101563.88;5093295;28;20545;-72
2021/06/16 02:36:26;;;;;;;6.47;2.63;;;;;;;11.95;65.84;101562.41;5093301;28;20028;-72
2021/06/16 02:38:57;;;;;;;6.20;2.90;;;;;;;11.93;65.62;101564.00;5092833;28;20028;-72
2021/06/16 02:41:23;;;;;;;4.43;2.67;;;;;;;11.89;65.82;101562.06;5093096;28;20035;-71
2021/06/16 02:43:49;;;;;;;6.25;3.08;;;;;;;11.85;65.68;101562.69;5093207;28;20015;-72
2021/06/16 02:46:18;;;;;;;6.43;2.67;;;;;;;11.88;65.45;101561.97;5093143;28;20020;-71
2021/06/16 02:48:48;;;;;;;4.72;2.65;;;;;;;11.95;65.28;101567.56;5092720;28;20073;-71
2021/06/16 02:51:14;;;;;;;4.40;2.80;;;;;;;11.94;65.05;101576.13;5093134;28;20392;-72
2021/06/16 02:53:43;;;;;;;5.15;2.80;;;;;;;11.90;65.52;101569.00;5092981;28;20016;-71
2021/06/16 02:56:09;;;;;;;6.78;3.33;;;;;;;11.86;65.92;101564.47;5092942;28;20472;-72
2021/06/16 02:58:37;;;;;;;7.97;3.30;;;;;;;11.91;65.85;101570.78;5092354;28;20032;-72
2021/06/16 03:01:05;;;;;;;8.60;3.10;;;;;;;11.88;65.87;101565.44;5093508;28;20248;-71
2021/06/16 03:03:31;;;;;;;7.97;3.20;;;;;;;11.83;66.18;101557.44;5092790;28;20055;-71
2021/06/16 03:05:59;;;;;;;5.43;2.80;;;;;;;11.85;65.86;101565.25;5092678;28;20097;-72
2021/06/16 03:08:26;;;;;;;6.75;3.75;;;;;;;11.80;65.99;101561.53;5093469;28;20035;-72
2021/06/16 03:10:52;;;;;;;4.15;3.00;;;;;;;11.81;66.23;101561.63;5093808;28;20174;-72
2021/06/16 03:13:18;;;;;;;9.95;3.70;;;;;;;11.85;66.17;101567.84;5092554;28;20538;-72
2021/06/16 03:15:46;;;;;;;4.30;2.83;;;;;;;11.83;65.95;101577.19;5091553;28;20051;-72
2021/06/16 03:18:13;;;;;;;7.97;2.83;;;;;;;11.85;65.65;101575.59;5092033;28;20020;-71
2021/06/16 03:20:41;;;;;;;5.30;2.70;;;;;;;11.83;65.49;101566.84;5092384;28;20028;-72
2021/06/16 03:23:08;;;;;;;7.10;2.63;;;;;;;11.85;65.39;101565.25;5075402;28;20034;-72
2021/06/16 03:25:34;;;;;;;6.30;2.70;;;;;;;11.84;65.58;101563.47;5075310;28;20024;-72
2021/06/16 03:28:03;;;;;;;13.13;3.40;;;;;;;11.79;66.17;101559.75;5091833;28;20019;-72
2021/06/16 03:30:29;;;;;;;4.30;3.00;;;;;;;11.87;66.20;101573.09;5091942;28;20047;-72
2021/06/16 03:32:55;;;;;;;5.82;3.10;;;;;;;11.85;66.61;101567.84;5091779;28;20027;-72
2021/06/16 03:35:21;;;;;;;6.90;2.67;;;;;;;11.87;66.72;101558.50;5092016;28;20032;-72
2021/06/16 03:37:47;;;;;;;9.30;3.15;;;;;;;11.89;66.10;101562.06;5097154;28;20034;-72
2021/06/16 03:40:14;;;;;;;6.13;2.70;;;;;;;11.95;65.98;101552.09;5098737;28;20520;-72
2021/06/16 03:42:40;;;;;;;7.93;2.83;;;;;;;12.02;65.54;101555.06;5102302;28;20059;-72
2021/06/16 03:45:08;;;;;;;9.88;3.03;;;;;;;12.10;65.56;101556.38;5102081;28;20479;-72
2021/06/16 03:47:35;;;;;;;7.25;2.60;;;;;;;12.20;65.12;101553.56;5101849;28;20020;-71
2021/06/16 03:50:01;;;;;;;5.72;3.00;;;;;;;12.19;65.32;101549.16;5101249;28;20047;-72
2021/06/16 03:52:27;;;;;;;6.22;2.88;;;;;;;12.25;65.24;101557.28;5103423;28;20532;-72
2021/06/16 03:54:53;;;;;;;7.93;3.15;;;;;;;12.34;65.55;101556.03;5097467;28;20020;-72
2021/06/16 03:57:20;;;;;;;9.77;4.13;;;;;;;12.40;65.33;101556.38;5090462;28;20024;-72
2021/06/16 03:59:48;;;;;;;5.88;2.72;;;;;;;12.41;65.73;101558.16;5090648;28;20116;-71
2021/06/16 04:02:18;;;;;;;7.47;3.25;;;;;;;12.42;65.85;101547.03;5091775;28;20031;-70
2021/06/16 04:04:44;;;;;;;;;;;;;;;12.51;65.79;101555.28;5093146;28;20039;-71
2021/06/16 04:07:14;;;;;;;5.15;2.92;;;;;;;12.55;65.75;101552.06;5092553;28;19912;-71
2021/06/16 04:09:40;;;;;;;16.35;5.25;;;;;;;12.53;66.21;101558.84;5091632;28;20164;-71
2021/06/16 04:12:06;;;;;;;6.63;3.50;;;;;;;12.45;66.46;101549.78;5091771;28;20513;-71
2021/06/16 04:14:31;;;;;;;7.85;3.35;;;;;;;12.38;66.96;101555.41;5092170;28;20452;-71
2021/06/16 04:16:57;;;;;;;5.10;3.10;;;;;;;12.80;65.62;101558.59;5091215;28;20123;-70
2021/06/16 04:19:23;;;;;;;9.07;3.17;;;;;;;12.88;65.77;101560.69;5091858;28;20049;-71
2021/06/16 04:21:49;;;;;;;11.05;3.50;;;;;;;12.91;65.35;101555.69;5091589;28;20087;-71
2021/06/16 04:24:15;;;;;;;10.18;3.47;;;;;;;12.88;65.62;101555.53;5096467;28;20124;-71
2021/06/16 04:26:40;;;;;;;7.65;2.67;;;;;;;13.19;64.37;101552.91;5092539;28;20469;-71
2021/06/16 04:29:05;;;;;;;5.80;3.03;;;;;;;13.32;64.17;101564.81;5095016;28;20169;-71
2021/06/16 04:31:31;;;;;;;9.43;2.83;;;;;;;13.24;63.97;101555.72;5095676;28;20081;-72
2021/06/16 04:33:58;;;;;;;7.93;2.65;;;;;;;13.02;64.40;101570.09;5095347;28;20492;-71
2021/06/16 04:36:24;;;;;;;6.80;2.47;;;;;;;13.13;64.42;101561.22;5078018;28;20024;-72
2021/06/16 04:38:50;;;;;;;7.18;2.50;;;;;;;13.35;64.05;101562.38;5095502;28;20051;-71
2021/06/16 04:41:15;;;;;;;9.43;2.80;;;;;;;13.54;63.61;101550.41;5095382;28;20373;-68
2021/06/16 04:43:40;;;;;;;8.05;2.20;;;;;;;13.48;63.45;101550.09;5096524;28;20035;-69
2021/06/16 04:46:06;;;;;;;5.10;2.03;;;;;;;13.62;63.19;101549.13;5095208;28;20111;-69
2021/06/16 04:48:31;;;;;;;8.70;1.88;;;;;;;13.68;62.51;101554.59;5096342;28;20049;-69
2021/06/16 04:50:57;;;;;;;8.88;1.80;;;;;;;13.68;62.69;101549.44;5094882;28;20103;-69
2021/06/16 04:53:22;;;;;;;4.05;1.55;;;;;;;13.79;62.52;101557.75;5094918;28;20016;-70
2021/06/16 04:55:48;;;;;;;8.38;1.75;;;;;;;13.67;62.63;101563.19;5095947;28;20020;-72
2021/06/16 04:58:13;;;;;;;5.82;1.92;;;;;;;13.54;62.78;101560.78;5095406;28;20039;-72
2021/06/16 05:00:39;;;;;;;3.80;1.85;;;;;;;13.61;63.21;101562.88;5093201;28;20449;-72
2021/06/16 05:03:05;;;;;;;5.20;1.80;;;;;;;13.72;63.32;101561.72;5078186;28;20508;-72
2021/06/16 05:05:31;;;;;;;6.68;2.35;;;;;;;13.78;62.89;101560.25;5096222;28;20050;-72
2021/06/16 05:07:57;;;;;;;4.68;1.92;;;;;;;13.98;61.89;101559.53;5102038;28;20500;-72
2021/06/16 05:10:22;;;;;;;13.20;2.10;;;;;;;13.90;62.60;101566.03;5103038;28;20044;-72
2021/06/16 05:12:48;;;;;;;5.15;2.28;;;;;;;13.71;63.25;101559.94;5102680;28;20018;-72
2021/06/16 05:15:15;;;;;;;6.47;1.73;;;;;;;13.82;62.73;101563.09;5103751;28;20012;-72
2021/06/16 05:17:41;;;;;;;11.60;1.70;;;;;;;14.12;62.03;101551.56;5103977;28;20042;-72
2021/06/16 05:20:08;;;;;;;6.20;1.60;;;;;;;14.40;61.33;101558.13;5095685;28;20035;-73
2021/06/16 05:22:35;;;;;;;3.47;1.65;;;;;;;14.56;61.40;101555.44;5080301;28;20024;-73
2021/06/16 05:25:02;;;;;;;3.53;1.58;;;;;;;14.56;61.57;101555.44;5074379;28;20389;-72
2021/06/16 05:27:27;;;;;;;8.48;1.42;;;;;;;14.60;60.69;101557.34;5082697;28;20031;-73
2021/06/16 05:29:54;;;;;;;5.93;1.40;;;;;;;14.46;60.15;101553.22;5084267;28;20035;-72
2021/06/16 05:32:20;;;;;;;4.10;1.20;;;;;;;14.30;60.89;101552.47;5113361;28;20387;-72
2021/06/16 05:34:46;;;;;;;3.72;2.05;;;;;;;14.36;60.62;101553.59;5114424;28;20437;-72
2021/06/16 05:37:12;;;;;;;4.18;1.58;;;;;;;14.35;61.19;101557.00;5073062;28;20477;-71
2021/06/16 05:39:39;;;;;;;7.38;1.20;;;;;;;14.53;60.77;101550.09;5091797;28;20028;-72
2021/06/16 05:42:04;;;;;;;4.88;1.17;;;;;;;14.49;61.09;101548.19;5098328;28;20085;-72
2021/06/16 05:44:30;;;;;;;7.00;1.40;;;;;;;14.61;60.53;101548.75;5086442;28;20020;-73
2021/06/16 05:46:56;;;;;;;9.85;2.22;;;;;;;14.86;59.77;101541.28;5101896;28;20039;-72
2021/06/16 05:49:21;;;;;;;6.38;1.42;;;;;;;14.81;59.07;101541.06;5101436;28;20473;-73
2021/06/16 05:51:47;;;;;;;10.20;1.25;;;;;;;14.92;59.53;101538.06;5090309;28;20499;-72
2021/06/16 05:54:12;;;;;;;3.30;1.20;;;;;;;15.06;59.24;101546.50;5107521;28;20108;-72
2021/06/16 05:56:39;;;;;;;5.13;1.30;;;;;;;15.17;58.48;101547.84;5109676;28;20047;-72
2021/06/16 05:59:04;;;;;;;7.35;1.17;;;;;;;15.19;57.77;101547.09;5102134;28;20123;-72
2021/06/16 06:01:30;;;;;;;2.85;1.10;;;;;;;15.33;57.88;101537.34;5091141;28;20103;-72
2021/06/16 06:03:56;;;;;;;8.85;2.28;;;;;;;15.50;57.45;101528.50;5092837;28;20061;-72
2021/06/16 06:06:21;;;;;;;3.58;1.05;;;;;;;15.64;56.85;101524.81;5091240;28;20028;-72
2021/06/16 06:08:47;;;;;;;4.38;1.30;;;;;;;15.75;56.56;101526.13;5090346;28;20028;-72
2021/06/16 06:11:12;;;;;;;6.45;2.13;;;;;;;15.78;56.78;101515.88;5091918;28;20019;-72
2021/06/16 06:13:37;;;;;;;4.43;1.30;;;;;;;15.99;56.71;101520.22;5087585;28;20131;-72
2021/06/16 06:16:03;;;;;;;10.23;1.60;;;;;;;16.09;56.30;101520.59;5071608;28;20095;-71
2021/06/16 06:18:29;;;;;;;8.98;1.58;;;;;;;16.14;55.56;101521.66;5070278;28;20028;-72
2021/06/16 06:20:54;;;;;;;5.65;1.70;;;;;;;16.22;56.73;101517.66;5070897;28;20029;-72
2021/06/16 06:23:20;;;;;;;8.98;1.92;;;;;;;16.50;55.83;101518.75;5080426;28;20028;-71
2021/06/16 06:25:45;;;;;;;2.95;1.15;;;;;;;16.79;56.03;101521.59;5092636;28;20028;-71
2021/06/16 06:28:10;;;;;;;3.67;1.15;;;;;;;17.02;55.55;101524.19;5092860;28;20084;-72
2021/06/16 06:30:37;;;;;;;6.15;1.40;;;;;;;16.93;54.77;101519.47;5091359;28;20040;-71
2021/06/16 06:33:03;;;;;;;16.05;2.47;;;;;;;17.15;54.90;101516.00;5077995;28;20035;-71
2021/06/16 06:35:29;;;;;;;4.75;1.30;;;;;;;17.35;54.82;101523.63;5054653;28;20032;-71
2021/06/16 06:37:55;;;;;;;5.07;1.33;;;;;;;17.44;54.50;101528.28;5070965;28;20028;-71
2021/06/16 06:40:20;;;;;;;8.70;2.40;;;;;;;17.60;55.04;101519.28;5071088;28;20112;-71
2021/06/16 06:42:45;;;;;;;6.15;1.45;;;;;;;17.67;54.77;101516.06;5081556;28;20059;-72
2021/06/16 06:45:11;;;;;;;8.25;1.60;;;;;;;17.80;53.82;101513.03;5063268;28;20094;-71
2021/06/16 06:47:37;;;;;;;4.78;1.83;;;;;;;17.95;53.71;101511.75;5070925;28;20020;-72
2021/06/16 06:50:10;;;;;;;4.50;1.52;;;;;;;18.09;53.60;101515.75;5072035;28;20024;-71
2021/06/16 06:52:36;;;;;;;4.53;1.50;;;;;;;18.07;52.59;101509.59;5079590;28;20100;-71
2021/06/16 06:55:01;;;;;;;9.23;2.10;;;;;;;18.30;54.63;101504.22;5078687;28;20123;-71
2021/06/16 06:57:27;;;;;;;9.10;1.77;;;;;;;18.43;52.51;101494.16;5053862;28;20060;-71
2021/06/16 06:59:52;;;;;;;6.82;1.40;;;;;;;18.65;52.65;101499.19;5072198;28;20051;-72
2021/06/16 07:02:18;;;;;;;5.15;1.45;;;;;;;18.74;52.13;101500.31;5071884;28;20047;-72
2021/06/16 07:04:43;;;;;;;4.75;1.20;;;;;;;18.77;51.08;101490.84;5072037;28;20024;-71
2021/06/16 07:07:09;;;;;;;8.38;1.38;;;;;;;18.84;50.27;101489.28;5073189;28;20028;-71
2021/06/16 07:09:34;;;;;;;4.28;1.58;;;;;;;18.99;50.52;101488.84;5075789;28;20042;-71
2021/06/16 07:12:00;;;;;;;5.78;1.88;;;;;;;19.29;50.29;101489.66;5092191;28;20028;-71
2021/06/16 07:14:25;;;;;;;9.27;1.48;;;;;;;19.41;52.03;101484.75;5090898;28;20070;-72
2021/06/16 07:16:50;;;;;;;6.07;1.77;;;;;;;19.17;50.22;101475.44;5092080;28;20123;-72
2021/06/16 07:19:16;;;;;;;6.72;1.27;;;;;;;19.43;51.32;101477.84;5091715;28;20058;-71
2021/06/16 07:21:41;;;;;;;8.50;1.50;;;;;;;19.75;48.43;101480.41;5090734;28;20108;-71
2021/06/16 07:24:09;;;;;;;5.22;1.60;;;;;;;19.81;48.94;101474.44;5073821;28;20039;-72
2021/06/16 07:26:35;;;;;;;5.43;1.15;;;;;;;19.96;48.74;101473.97;5090811;28;20031;-71
2021/06/16 07:29:00;;;;;;;6.53;1.83;;;;;;;20.05;48.22;101489.88;5089956;28;20416;-71
2021/06/16 07:31:25;;;;;;;5.35;1.38;;;;;;;20.03;48.42;101473.25;5090647;28;20059;-71
2021/06/16 07:33:51;;;;;;;8.45;1.48;;;;;;;20.34;47.36;101479.19;5091534;28;20158;-71
2021/06/16 07:36:17;;;;;;;7.28;1.42;;;;;;;20.47;47.13;101476.84;5072431;28;20028;-71
2021/06/16 07:38:42;;;;;;;6.70;1.88;;;;;;;20.65;47.46;101482.47;5091020;28;20028;-72
2021/06/16 07:41:08;;;;;;;8.40;1.30;;;;;;;20.84;46.25;101475.03;5089898;28;20090;-71
2021/06/16 07:43:33;;;;;;;8.48;1.60;;;;;;;20.84;46.72;101475.03;5089935;28;20226;-71
2021/06/16 07:45:58;;;;;;;16.42;2.05;;;;;;;20.95;47.52;101476.13;5089544;28;20032;-71
2021/06/16 07:48:24;;;;;;;12.30;1.60;;;;;;;21.02;46.48;101478.00;5089477;28;20024;-72
2021/06/16 07:50:49;;;;;;;6.15;1.40;;;;;;;20.84;45.79;101477.66;5072302;28;20047;-72
2021/06/16 07:53:15;;;;;;;12.13;1.30;;;;;;;21.06;45.54;101470.22;5089258;28;20063;-72
2021/06/16 07:55:40;;;;;;;5.45;1.48;;;;;;;21.29;44.22;101471.53;5090894;28;20024;-71
2021/06/16 07:58:07;;;;;;;11.85;1.33;;;;;;;21.55;45.99;101465.84;5089033;28;20019;-71
2021/06/16 08:00:33;;;;;;;8.18;1.48;;;;;;;21.70;43.11;101461.75;5090302;28;20028;-71
2021/06/16 08:02:58;;;;;;;3.97;1.30;;;;;;;21.64;41.47;101461.66;5091727;28;20036;-72
2021/06/16 08:05:24;;;;;;;4.30;1.27;;;;;;;21.56;42.26;101466.75;5090010;28;20024;-71
2021/06/16 08:07:50;;;;;;;4.88;2.10;;;;;;;21.54;41.33;101460.59;5089795;28;20035;-72
2021/06/16 08:10:15;;;;;;;10.57;1.70;;;;;;;21.81;42.89;101454.06;5089561;28;20024;-72
2021/06/16 08:12:41;;;;;;;6.10;1.75;;;;;;;22.01;41.16;101457.00;5088596;28;20028;-71
2021/06/16 08:15:08;;;;;;;12.80;1.65;;;;;;;22.32;40.64;101457.44;5089729;28;20073;-71
2021/06/16 08:17:34;;;;;;;5.53;1.10;;;;;;;22.31;36.24;101446.06;5089375;28;20016;-72
2021/06/16 08:20:00;;;;;;;6.90;1.15;;;;;;;22.42;36.72;101446.19;5086968;28;20510;-72
2021/06/16 08:22:26;;;;;;;7.80;1.40;;;;;;;22.65;37.03;101450.88;5090467;28;20104;-71
2021/06/16 08:24:52;;;;;;;4.30;0.95;;;;;;;22.74;39.08;101445.72;5090605;28;20044;-71
2021/06/16 08:27:18;;;;;;;11.13;1.60;;;;;;;22.48;38.56;101453.31;5088515;28;20103;-71
2021/06/16 08:29:43;;;;;;;2.88;1.58;;;;;;;22.73;38.10;101443.97;5089497;28;20044;-71
2021/06/16 08:32:09;;;;;;;4.30;1.00;;;;;;;22.93;38.37;101451.22;5070199;28;20030;-71
2021/06/16 08:34:38;;;;;;;9.32;1.35;;;;;;;23.41;36.78;101453.44;5088174;28;20105;-71
2021/06/16 08:37:04;;;;;;;3.43;1.07;;;;;;;23.32;36.07;101443.72;5088128;28;20419;-71
2021/06/16 08:39:30;;;;;;;9.70;1.38;;;;;;;23.56;36.22;101432.53;5090679;28;20380;-72
2021/06/16 08:41:56;;;;;;;4.63;1.05;;;;;;;23.49;37.78;101436.88;5090607;28;20478;-71
2021/06/16 08:44:21;;;;;;;2.38;0.80;;;;;;;23.21;34.29;101438.34;5088956;28;20036;-71
2021/06/16 08:46:48;;;;;;;3.33;1.10;;;;;;;23.22;35.87;101434.84;5090557;28;20385;-72
2021/06/16 08:49:14;;;;;;;9.48;1.35;;;;;;;23.50;36.31;101432.50;5072717;28;20039;-71
2021/06/16 08:51:39;;;;;;;14.60;1.55;;;;;;;23.73;35.43;101429.16;5072170;28;20082;-71
2021/06/16 08:54:07;;;;;;;7.43;1.30;;;;;;;23.83;36.17;101430.97;5089361;28;20024;-71
2021/06/16 08:56:33;;;;;;;7.32;1.33;;;;;;;23.50;36.08;101432.50;5089282;28;20424;-71
2021/06/16 08:58:59;;;;;;;7.90;1.98;;;;;;;23.00;37.80;101425.88;5088992;28;20016;-71
2021/06/16 09:01:24;;;;;;;6.00;0.90;;;;;;;23.12;34.30;101419.88;5089212;28;20095;-71
2021/06/16 09:03:50;;;;;;;3.95;1.10;;;;;;;23.16;35.84;101422.50;5086189;28;20028;-72
2021/06/16 09:06:17;;;;;;;2.85;1.08;;;;;;;23.83;35.25;101425.72;5068923;28;20040;-71
2021/06/16 09:09:01;;;;;;;6.10;1.38;;;;;;;24.21;36.98;101425.09;5068908;28;20104;-71
2021/06/16 09:11:28;;;;;;;4.38;1.00;;;;;;;24.21;33.09;101427.72;5052505;28;20031;-71
2021/06/16 09:14:15;;;;;;;8.52;1.55;;;;;;;24.71;33.40;101427.91;5072596;28;20103;-72
2021/06/16 09:16:41;;;;;;;3.92;1.13;;;;;;;24.40;33.50;101411.16;5072533;28;20020;-71
2021/06/16 09:19:24;;;;;;;6.32;1.20;;;;;;;24.25;33.65;101422.47;5073003;28;20040;-72
2021/06/16 09:22:00;;;;;;;5.55;0.95;;;;;;;24.65;33.17;101417.38;5091179;28;20107;-72
2021/06/16 09:24:40;;;;;;;8.38;1.10;;;;;;;25.07;32.67;101418.38;5094233;28;20016;-72
2021/06/16 09:27:05;;;;;;;5.10;1.20;;;;;;;25.60;30.36;101431.59;5090668;28;20483;-71
2021/06/16 09:29:30;;;;;;;7.18;1.17;;;;;;;25.88;30.33;101421.00;5092673;28;20059;-71
2021/06/16 09:32:04;;;;;;;5.10;1.17;;;;;;;26.66;30.07;101420.75;5094806;28;20098;-71
2021/06/16 09:35:14;;;;;;;7.07;1.30;;;;;;;29.58;25.61;101417.50;5066279;28;20115;-71
2021/06/16 09:37:43;;;;;;;7.18;1.13;;;;;;;30.91;24.35;101405.97;5087078;28;20023;-71
2021/06/16 09:40:09;;;;;;;6.70;1.20;;;;;;;30.27;26.35;101404.69;5092619;28;20654;-71
2021/06/16 09:42:34;;;;;;;7.00;1.10;;;;;;;29.47;26.78;101403.56;5094165;28;20024;-71
2021/06/16 09:45:02;;;;;;;6.93;1.45;;;;;;;29.41;26.74;101396.56;5093061;28;20415;-71
2021/06/16 09:51:17;;;;;;;7.13;1.17;;;;;;;30.21;25.26;101396.84;5081441;28;20465;-72
2021/06/16 09:54:15;;;;;;;5.32;2.20;;;;;;;31.26;24.09;101390.03;5087241;28;20514;-71
2021/06/16 09:56:44;;;;;;;5.43;1.30;;;;;;;32.77;22.03;101392.00;5089836;28;20036;-71
2021/06/16 09:59:13;;;;;;;3.78;1.08;;;;;;;35.10;18.63;101388.88;5092971;28;20103;-71
2021/06/16 10:01:46;;;;;;;3.65;1.25;;;;;;;35.75;18.84;101375.38;5091935;28;20038;-71
2021/06/16 10:04:31;;;;;;;3.40;0.93;;;;;;;37.34;16.57;101378.50;5093726;28;20038;-71
2021/06/16 10:07:30;;;;;;;4.25;0.88;;;;;;;36.18;17.91;101380.56;5080762;28;20043;-71
2021/06/16 10:09:55;;;;;;;;;;;;;;;37.08;15.71;101369.97;5063157;28;20438;-71
2021/06/16 10:12:23;;;;;;;6.70;1.33;;;;;;;36.70;16.73;101362.91;5089505;28;19915;-71
2021/06/16 10:14:49;;;;;;;5.22;1.02;;;;;;;37.31;15.74;101367.91;5093615;28;20530;-71
2021/06/16 10:17:16;;;;;;;4.38;1.70;;;;;;;36.59;16.75;101371.50;5093479;28;20032;-71
2021/06/16 10:19:43;;;;;;;3.83;1.17;;;;;;;37.61;15.67;101364.56;5094615;28;20400;-71
2021/06/16 10:22:10;;;;;;;5.80;1.25;;;;;;;37.27;15.63;101357.31;5094130;28;20031;-71
2021/06/16 10:24:35;;;;;;;3.45;1.38;;;;;;;34.58;19.02;101359.78;5093991;28;20020;-71
2021/06/16 10:27:03;;;;;;;4.70;1.15;;;;;;;33.97;19.41;101359.44;5092525;28;20380;-71
2021/06/16 10:29:39;;;;;;;7.15;1.00;;;;;;;36.50;17.01;101350.47;5075649;28;20166;-72
2021/06/16 10:32:06;;;;;;;3.60;1.17;;;;;;;35.86;17.99;101349.88;5094378;28;20377;-71
2021/06/16 10:34:50;;;;;;;4.95;1.08;;;;;;;35.85;18.46;101348.16;5092934;28;20376;-71
2021/06/16 10:37:30;;;;;;;5.55;1.27;;;;;;;36.00;17.45;101341.22;5094170;28;20031;-72
2021/06/16 10:40:17;;;;;;;5.53;1.10;;;;;;;38.10;15.58;101344.88;5092945;28;20031;-71
2021/06/16 10:43:05;;;;;;;5.05;1.00;;;;;;;39.13;15.49;101350.66;5094189;28;20024;-71
2021/06/16 10:45:38;;;;;;;7.17;1.00;;;;;;;33.46;19.62;101353.28;5094074;28;20028;-71
2021/06/16 10:48:07;;;;;;;4.40;1.20;;;;;;;33.39;20.43;101347.22;5093064;28;20262;-71
2021/06/16 10:50:48;;;;;;;5.35;1.17;;;;;;;32.09;21.25;101341.66;5094106;28;20554;-71
2021/06/16 10:53:14;;;;;;;4.40;1.27;;;;;;;33.84;19.87;101350.13;5093847;28;20028;-71
2021/06/16 10:55:52;;;;;;;4.60;0.93;;;;;;;33.77;19.48;101346.78;5092575;28;20020;-71
2021/06/16 10:58:18;;;;;;;7.82;1.15;;;;;;;32.67;20.65;101335.41;5093586;28;20028;-71
2021/06/16 11:01:06;;;;;;;6.38;1.23;;;;;;;32.57;20.41;101342.88;5092465;28;20024;-71
2021/06/16 11:04:01;;;;;;;10.30;1.60;;;;;;;33.37;19.51;101338.41;5093534;28;20028;-71
2021/06/16 11:06:33;;;;;;;3.95;0.98;;;;;;;32.05;21.85;101324.88;5079337;28;20040;-72
2021/06/16 11:09:09;;;;;;;3.97;1.33;;;;;;;34.22;19.98;101321.06;5092007;28;20393;-71
2021/06/16 11:11:50;;;;;;;5.20;1.10;;;;;;;32.41;22.15;101320.28;5090748;28;20061;-72
2021/06/16 11:14:37;;;;;;;8.63;1.50;;;;;;;30.93;24.64;101337.66;5089491;28;20035;-72
2021/06/16 11:17:07;;;;;;;5.07;1.38;;;;;;;28.76;26.25;101315.41;5090552;28;20024;-72
2021/06/16 11:19:36;;;;;;;7.75;1.48;;;;;;;27.59;28.53;101313.44;5088431;28;20023;-72
2021/06/16 11:22:13;;;;;;;4.15;1.40;;;;;;;28.64;26.89;101301.47;5093068;28;20024;-72
2021/06/16 11:25:08;;;;;;;4.57;1.38;;;;;;;29.25;26.38;101308.44;5090638;28;20091;-71
2021/06/16 11:31:28;;;;;;;4.50;1.33;;;;;;;29.10;25.58;101305.13;5097117;28;20047;-71
2021/06/16 11:33:55;;;;;;;3.45;1.60;;;;;;;28.45;27.07;101295.56;5086318;28;20031;-71
2021/06/16 11:36:37;;;;;;;5.95;1.85;;;;;;;27.81;28.00;101292.88;5093195;28;20420;-71